Terminal Aerodrome Forecast
Issued by NWS Tampa Bay Area, FL

Current Version | Previous Version | Text Only | Print | Product List | Glossary On
Versions: 1 2 3 4 5 6 7 8 9 10 11 12 13 14 15 16
000
FTUS42 KTBW 221145
TAFSRQ
TAF
KSRQ 221145Z 2212/2312 12008KT P6SM FEW006 SCT025 SCT250
     FM221400 15012KT P6SM FEW025 SCT250
     FM221900 20010KT P6SM VCTS SCT040CB SCT100 BKN250
     FM230200 11006KT P6SM SCT030 SCT100 BKN250=

USA.gov is the U.S. government's official web portal to all federal, state and local government web resources and services.